Latest Coastal Weather Observations for Gabo Island (VIC)

IDN60701

Issued at 5:35 pm EDT Wednesday 22 October 2014 (issued every 10 minutes, with the page automatically refreshed every 10 minutes)

About coastal observations | Map of coastal stations | Coastal observations for NSW | Marine services | Other Formats
Station Details ID: 084016 Name: GABO ISLAND LIGHTHOUSE Lat: -37.57 Lon: 149.92 Height: 15.2 m
Data from the previous 72 hours. | See also: Recent months at Gabo Island (VIC)
Date/Time
EDT
Temp

°C
Wind Pressure Rain
since 9am
mm
Weather Cloud Vis
km
Sea
Height
m
Swell
Dir
 
Speed
knots
Gust
knots
hPa Trend Height
m
Period
s
Dir
22/05:30pm 18.3 NNE 20 23 1017.5 - 0.0 - - - - - - -
22/05:00pm 18.5 NNE 22 26 1017.6 - 0.0 - - - - - - -
22/04:30pm 18.6 NNE 22 26 1017.7 - 0.0 - - - - - - -
22/04:00pm 18.9 NNE 22 26 1017.9 - 0.0 - - - - - - -
22/03:30pm 19.0 NNE 23 27 1018.2 - 0.0 - - - - - - -
22/03:00pm 19.0 NNE 24 29 1018.5 - 0.0 Fine Mostly clear 30 2 1.0 - SE
22/02:30pm 19.0 NNE 24 29 1018.8 - 0.0 - - - - - - -
22/02:00pm 19.0 NNE 26 31 1019.1 - 0.0 - - - - - - -
22/01:30pm 18.9 NNE 26 32 1019.2 - 0.0 - - - - - - -
22/01:00pm 18.7 NNE 26 31 1019.6 - 0.0 - - - - - - -
22/12:30pm 18.5 NNE 26 32 1020.0 - 0.0 - - - - - - -
22/12:00pm 18.5 NNE 26 31 1020.5 - 0.0 - - - - - - -
22/11:30am 18.6 NNE 26 32 1021.1 - 0.0 - - - - - - -
22/11:00am 18.1 NNE 26 32 1021.4 - 0.0 - - - - - - -
22/10:30am 17.7 NNE 26 33 1021.9 - 0.0 - - - - - - -
22/10:00am 17.7 NNE 26 32 1022.2 - 0.0 - - - - - - -
22/09:31am 17.6 N 24 34 1022.5 - 0.0 - - - - - - -
22/09:30am 17.8 N 25 34 1022.5 - 0.0 - - - - - - -
22/09:00am 17.2 NNE 27 37 1022.6 - 0.0 Fine Mostly clear 30 2 1.0 - S
22/08:39am 16.8 NNE 26 36 1022.6 - 0.0 - - - - - - -
22/08:30am 16.6 NNE 28 34 1022.5 - 0.0 - - - - - - -
22/08:00am 16.1 NNE 27 35 1022.7 - 0.0 - - - - - - -
22/07:44am 15.8 NNE 25 35 1022.8 - 0.0 - - - - - - -
22/07:30am 15.5 NNE 26 35 1022.9 - 0.0 - - - - - - -
22/07:05am 15.1 NNE 26 36 1022.7 - 0.0 - - - - - - -
22/07:00am 15.2 NNE 25 31 1022.9 - 0.0 - - - - - - -
22/06:30am 14.6 NNE 24 31 1023.0 - 0.0 - - - - - - -
22/06:00am 14.8 NNE 24 32 1023.0 - 0.0 - - - - - - -
22/05:30am 14.7 NNE 24 29 1023.1 - 0.0 - - - - - - -
22/05:02am 14.5 NNE 23 33 1023.1 - 0.0 - - - - - - -
22/05:00am 14.6 NNE 24 33 1023.1 - 0.0 - - - - - - -
22/04:55am 14.7 NNE 23 33 1023.0 - 0.0 - - - - - - -
22/04:30am 14.6 NNE 23 30 1023.4 - 0.0 - - - - - - -
22/04:00am 14.9 NNE 23 30 1023.8 - 0.0 - - - - - - -
22/03:30am 14.9 NNE 26 32 1023.8 - 0.0 - - - - - - -
22/03:00am 14.5 NNE 26 33 1024.2 - 0.0 Fine Mostly clear 25 2 1.0 - NE
22/02:30am 14.7 NNE 27 34 1024.5 - 0.0 - - - - - - -
22/02:00am 15.1 NNE 25 33 1025.2 - 0.0 - - - - - - -
22/01:30am 15.1 NNE 24 30 1025.8 - 0.0 - - - - - - -
22/01:00am 15.2 NNE 25 32 1026.1 - 0.0 - - - - - - -
22/12:30am 15.3 NNE 24 29 1026.8 - 0.0 - - - - - - -
22/12:00am 15.5 NNE 21 25 1027.4 - 0.0 - - - - - - -
 
Date/Time
EDT
Temp

°C
Wind Pressure Rain
since 9am
mm
Weather Cloud Vis
km
Sea
Height
m
Swell
Dir
 
Speed
knots
Gust
knots
hPa Trend Height
m
Period
s
Dir
21/11:30pm 15.4 NNE 20 27 1027.8 - 0.0 - - - - - - -
21/11:00pm 15.5 NE 28 36 1027.7 - 0.0 - - - - - - -
21/10:30pm 15.6 NE 27 35 1027.9 - 0.0 - - - - - - -
21/10:00pm 15.4 NE 29 36 1028.1 - 0.0 - - - - - - -
21/09:30pm 15.4 NE 28 34 1028.4 - 0.0 - - - - - - -
21/09:00pm 15.3 NE 30 35 1028.4 - 0.0 Fine Mostly clear 25 2 1.0 - NE
21/08:30pm 15.4 NE 30 35 1028.5 - 0.0 - - - - - - -
21/08:00pm 15.2 NE 28 34 1028.4 - 0.0 - - - - - - -
21/07:30pm 15.2 NE 27 33 1028.4 - 0.0 - - - - - - -
21/07:00pm 15.3 NE 26 31 1028.6 - 0.0 - - - - - - -
21/06:30pm 15.3 NE 25 31 1028.6 - 0.0 - - - - - - -
21/06:00pm 15.4 NE 24 29 1028.7 - 0.0 - - - - - - -
21/05:30pm 15.5 NE 24 29 1029.0 - 0.0 - - - - - - -
21/05:00pm 15.8 NNE 24 29 1029.2 - 0.0 - - - - - - -
21/04:30pm 16.1 NE 24 30 1029.0 - 0.0 - - - - - - -
21/04:00pm 16.2 NE 24 29 1029.1 - 0.0 - - - - - - -
21/03:30pm 16.4 NE 25 31 1029.4 - 0.0 - - - - - - -
21/03:00pm 16.4 NE 24 28 1029.8 - 0.0 Fine Mostly cloudy 40 1 1.0 - SE
21/02:30pm 16.4 NE 24 29 1030.2 - 0.0 - - - - - - -
21/02:00pm 16.2 NE 25 29 1030.6 - 0.0 - - - - - - -
21/01:30pm 16.5 NE 24 29 1030.9 - 0.0 - - - - - - -
21/01:00pm 16.5 NE 25 29 1031.3 - 0.0 - - - - - - -
21/12:30pm 16.5 NE 23 27 1031.8 - 0.0 - - - - - - -
21/12:00pm 16.8 NE 24 29 1032.1 - 0.0 - - - - - - -
21/11:30am 16.6 NE 23 27 1032.3 - 0.0 - - - - - - -
21/11:00am 16.4 NE 22 26 1032.5 - 0.0 - - - - - - -
21/10:30am 15.8 NE 22 25 1032.7 - 0.0 - - - - - - -
21/10:00am 16.0 NE 21 24 1033.0 - 0.0 - - - - - - -
21/09:30am 15.7 NE 20 23 1032.9 - 0.0 - - - - - - -
21/09:00am 15.7 NE 17 22 1033.0 - 0.0 Fine Mostly cloudy 35 1 1.0 - SE
21/08:30am 15.0 NE 18 23 1032.7 - 0.0 - - - - - - -
21/08:00am 14.5 NNE 18 23 1032.6 - 0.0 - - - - - - -
21/07:30am 14.7 NE 19 24 1032.4 - 0.0 - - - - - - -
21/07:00am 14.4 NNE 15 19 1032.1 - 0.0 - - - - - - -
21/06:30am 14.4 NNE 14 17 1031.9 - 0.0 - - - - - - -
21/06:00am 14.5 NE 16 21 1031.7 - 0.0 - - - - - - -
21/05:30am 14.3 NE 16 19 1031.7 - 0.0 - - - - - - -
21/05:00am 14.2 NNE 14 18 1031.6 - 0.0 - - - - - - -
21/04:30am 14.2 NNE 16 20 1031.7 - 0.0 - - - - - - -
21/04:00am 14.1 NE 16 19 1031.7 - 0.0 - - - - - - -
21/03:30am 14.1 NE 15 19 1031.9 - 0.0 - - - - - - -
21/03:00am 13.9 NE 15 17 1032.3 - 0.0 Fine Partly cloudy 30 1 1.0 - S
21/02:30am 13.9 ENE 15 17 1032.4 - 0.0 - - - - - - -
21/02:00am 14.2 ENE 16 19 1032.7 - 0.0 - - - - - - -
21/01:30am 13.7 NE 13 16 1032.9 - 0.0 - - - - - - -
21/01:00am 14.4 ENE 14 18 1033.0 - 0.0 - - - - - - -
21/12:30am 14.1 ENE 13 15 1033.3 - 0.0 - - - - - - -
21/12:00am 14.0 ENE 13 14 1033.5 - 0.0 - - - - - - -
 
Date/Time
EDT
Temp

°C
Wind Pressure Rain
since 9am
mm
Weather Cloud Vis
km
Sea
Height
m
Swell
Dir
 
Speed
knots
Gust
knots
hPa Trend Height
m
Period
s
Dir
20/11:30pm 14.2 ENE 15 17 1033.4 - 0.0 - - - - - - -
20/11:00pm 14.2 E 14 17 1033.4 - 0.0 - - - - - - -
20/10:30pm 14.3 ENE 15 17 1033.5 - 0.0 - - - - - - -
20/10:00pm 14.2 E 13 16 1033.6 - 0.0 - - - - - - -
20/09:30pm 14.2 E 13 16 1033.5 - 0.0 - - - - - - -
20/09:00pm 14.1 E 12 14 1033.6 - 0.0 Fine Mostly clear 40 1 1.0 - S
20/08:30pm 14.1 E 12 15 1033.3 - 0.0 - - - - - - -
20/08:00pm 14.2 E 14 16 1032.9 - 0.0 - - - - - - -
20/07:30pm 14.2 E 13 16 1032.7 - 0.0 - - - - - - -
20/07:00pm 14.3 E 11 15 1032.6 - 0.0 - - - - - - -
20/06:30pm 14.5 E 10 13 1032.5 - 0.0 - - - - - - -
20/06:00pm 14.7 ESE 9 12 1032.5 - 0.0 - - - - - - -
20/05:30pm 14.9 ESE 10 13 1032.3 - 0.0 - - - - - - -
20/05:00pm 15.2 ESE 10 13 1032.1 - 0.0 - - - - - - -
20/04:30pm 15.6 ESE 11 14 1031.8 - 0.0 - - - - - - -
20/04:00pm 15.2 SE 9 12 1031.7 - 0.0 - - - - - - -
20/03:30pm 15.9 SE 9 12 1031.8 - 0.0 - - - - - - -
20/03:00pm 15.9 SE 9 12 1032.1 - 0.0 Fine Mostly cloudy 40 1 1.0 - SE
20/02:30pm 16.0 SSE 11 13 1032.0 - 0.0 - - - - - - -
20/02:00pm 16.2 SSE 10 15 1032.2 - 0.0 - - - - - - -
20/01:30pm 16.2 SSE 13 16 1032.3 - 0.0 - - - - - - -
20/01:00pm 16.2 SSE 13 17 1032.1 - 0.0 - - - - - - -
20/12:30pm 15.4 SSE 13 19 1032.5 - 0.0 - - - - - - -
20/12:00pm 15.2 SSE 15 18 1032.8 - 0.0 - - - - - - -
20/11:30am 15.5 SSE 13 17 1032.7 - 0.0 - - - - - - -
20/11:00am 15.9 SSE 14 17 1032.5 - 0.0 - - - - - - -
20/10:30am 15.0 S 14 17 1032.4 - 0.0 - - - - - - -
20/10:00am 14.8 S 13 17 1032.1 - 0.0 - - - - - - -
20/09:30am 14.2 S 14 18 1031.8 - 0.0 - - - - - - -
20/09:00am 15.1 S 14 19 1031.3 - 0.0 Fine Partly cloudy 30 1 1.0 - SW
20/08:30am 13.8 S 13 17 1030.8 - 0.0 - - - - - - -
20/08:00am 14.1 S 19 22 1030.4 - 0.0 - - - - - - -
20/07:30am 14.2 S 19 23 1029.8 - 0.0 - - - - - - -
20/07:00am 13.6 S 21 25 1029.4 - 0.0 - - - - - - -
20/06:30am 13.4 S 21 27 1028.9 - 0.0 - - - - - - -
20/06:00am 13.5 S 24 27 1028.2 - 0.0 - - - - - - -
20/05:30am 13.2 S 27 31 1027.8 - 0.0 - - - - - - -
20/05:10am 13.9 S 25 35 1027.6 - 0.0 - - - - - - -
20/05:00am 14.2 SW 30 34 1027.2 - 0.0 - - - - - - -
20/04:30am 14.0 SW 30 36 1026.7 - 0.0 - - - - - - -
20/04:00am 14.4 SW 32 38 1026.4 - 0.0 - - - - - - -
20/03:30am 13.8 SW 33 40 1026.1 - 0.0 - - - - - - -
20/03:00am 15.0 SW 32 41 1025.6 - 0.0 Fine Partly cloudy 30 1 1.0 - SW
20/02:53am 14.9 SW 31 41 1025.6 - 0.0 - - - - - - -
20/02:30am 14.8 WSW 29 35 1025.6 - 0.0 - - - - - - -
20/02:00am 14.9 WSW 30 38 1025.4 - 0.0 - - - - - - -
20/01:30am 15.1 WSW 28 35 1025.0 - 0.0 - - - - - - -
20/01:07am 15.1 WSW 25 35 1024.9 - 0.0 - - - - - - -
20/01:00am 15.3 WSW 25 33 1024.9 - 0.0 - - - - - - -
20/12:30am 15.6 WSW 23 31 1024.9 - 0.0 - - - - - - -
20/12:00am 15.8 SW 23 29 1024.1 - 0.0 - - - - - - -
 
Date/Time
EDT
Temp

°C
Wind Pressure Rain
since 9am
mm
Weather Cloud Vis
km
Sea
Height
m
Swell
Dir
 
Speed
knots
Gust
knots
hPa Trend Height
m
Period
s
Dir
19/11:30pm 16.2 WSW 22 27 1023.8 - 0.0 - - - - - - -
19/11:00pm 16.6 WSW 23 30 1023.6 - 0.0 - - - - - - -
19/10:30pm 16.6 WSW 18 23 1023.1 - 0.0 - - - - - - -
19/10:00pm 17.1 SW 27 32 1021.8 - 0.0 - - - - - - -
19/09:36pm 19.9 SW 18 24 1021.2 - 0.0 - - - - - - -
19/09:30pm 22.6 NW 8 9 1020.2 - 0.0 - - - - - - -
19/09:00pm 21.1 NW 10 11 1019.8 - 0.0 Fine Mostly cloudy 30 <0.5 1.0 - NE
19/08:30pm 19.7 W 7 9 1019.7 - 0.0 - - - - - - -
19/08:00pm 18.7 N 4 6 1019.4 - 0.0 - - - - - - -
19/07:30pm 18.5 NNE 8 11 1018.8 - 0.0 - - - - - - -
19/07:00pm 17.9 NNE 10 11 1018.5 - 0.0 - - - - - - -
19/06:30pm 18.9 NNE 10 11 1018.1 - 0.0 - - - - - - -
19/06:00pm 18.5 NNE 11 13 1017.7 - 0.0 - - - - - - -

Other Formats:

Comma delimited format used in spreadsheet applications
http://www.bom.gov.au/fwo/IDN60701/IDN60701.94933.axf

JavaScript Object Notation format (JSON) in row-major order
http://www.bom.gov.au/fwo/IDN60701/IDN60701.94933.json